Adventurer — WDG2953 — position and weather

sailwx.info

Track history (hours):
 
Tides and Currents Weather Stations Pressure Air Temp Water Temp Dewpoint Dewpoint Depression Visibility Wind Speed Wind Dir Waves Ship Positions

Adventurer

Owner: Hood, Duncan M, Annapolis, MD. More information available from US FCC via Universal Licensing System and Coast Guard Vessel Documentation Center.

Last reported at 2017-Oct-28 17:12 UTC. Time now 2017-Dec-16 12:51 UTC.
Position N 38°58' W 076°29'.
Warning: this ship's position is 48 days out of date.

Length 15 m.

Type: Sailing vessel. MMSI: 367520960.

Date/timePositionNaut miles runAvg speedWind from/ knotsBaromVisibWave heightAir tempDewpointWater temp
2017-Oct-28 17:12N 38°58' W 076°29'0 0.1
2017-Oct-28 17:00N 38°58' W 076°29'2 4.2
2017-Oct-28 16:31N 38°60' W 076°29'2 4.6
2017-Oct-28 15:59N 39°01' W 076°32'0 0.0
2017-Oct-28 15:11N 39°01' W 076°32'0 0.5
2017-Oct-28 14:48N 39°01' W 076°32'1 0.0
2017-Oct-27 22:02N 39°01' W 076°31'0 2.0
2017-Oct-27 21:56N 39°01' W 076°31'  
2017-Oct-23 22:24N 38°58' W 076°29'0 0.0
2017-Oct-23 22:00N 38°58' W 076°29'0 0.0
2017-Oct-23 21:30N 38°58' W 076°29'0 0.0
2017-Oct-23 20:52N 38°58' W 076°29'1 1.8
2017-Oct-23 20:30N 38°58' W 076°28'3 6.5
2017-Oct-23 20:00N 38°58' W 076°24'3 5.6
2017-Oct-23 19:28N 38°59' W 076°20'0 0.0
2017-Oct-23 18:16N 38°59' W 076°20'1 2.4
2017-Oct-23 18:00N 38°59' W 076°21'3 6.1
2017-Oct-23 17:29N 38°56' W 076°23'3 5.7
2017-Oct-23 16:55N 38°54' W 076°26'2 4.4
2017-Oct-23 16:30N 38°54' W 076°29'2 4.8
2017-Oct-23 16:00N 38°56' W 076°31'0 0.0
2017-Oct-22 22:53N 38°56' W 076°31'2 5.0
2017-Oct-22 22:30N 38°54' W 076°29'2 4.8
2017-Oct-22 22:00N 38°54' W 076°26'2 4.0
2017-Oct-22 21:30N 38°56' W 076°26'3 5.8
2017-Oct-22 20:59N 38°58' W 076°28'0 0.9
2017-Oct-22 20:27N 38°58' W 076°29'0 0.0
2017-Oct-22 19:57N 38°58' W 076°29'0 0.0
2017-Oct-22 19:15N 38°58' W 076°29'0 0.0
2017-Oct-22 18:45N 38°58' W 076°29'0 0.0
2017-Oct-22 18:15N 38°58' W 076°29'0 0.0
2017-Oct-22 17:57N 38°58' W 076°29'0 0.0
2017-Oct-22 16:57N 38°58' W 076°29'0 0.0
2017-Oct-22 15:45N 38°58' W 076°29'0 0.0
2017-Oct-22 15:09N 38°58' W 076°29'0 0.0
2017-Oct-22 14:57N 38°58' W 076°29'0 0.0
2017-Oct-22 14:15N 38°58' W 076°29'0 0.0
2017-Oct-22 13:57N 38°58' W 076°29'0 0.0
2017-Oct-22 13:27N 38°58' W 076°29'0 0.0
2017-Oct-22 12:57N 38°58' W 076°29'0 0.0
2017-Oct-22 12:30N 38°58' W 076°29'0 0.0
2017-Oct-22 11:57N 38°58' W 076°29'0 0.0
2017-Oct-22 11:27N 38°58' W 076°29'0 0.0
2017-Oct-22 10:57N 38°58' W 076°29'0 0.0
2017-Oct-22 10:24N 38°58' W 076°29'0 0.0
2017-Oct-22 09:33N 38°58' W 076°29'0 0.0
2017-Oct-22 09:30N 38°58' W 076°29'0 0.0
2017-Oct-22 08:48N 38°58' W 076°29'0 0.0
2017-Oct-22 08:27N 38°58' W 076°29'0 0.0
2017-Oct-22 07:39N 38°58' W 076°29'0 0.0
2017-Oct-22 07:27N 38°58' W 076°29'0 0.0
2017-Oct-22 06:39N 38°58' W 076°29'0 0.0
2017-Oct-22 06:27N 38°58' W 076°29'0 0.0
2017-Oct-22 05:36N 38°58' W 076°29'0 0.0
2017-Oct-22 05:27N 38°58' W 076°29'0 0.0
2017-Oct-22 04:54N 38°58' W 076°29'0 0.0
2017-Oct-22 04:27N 38°58' W 076°29'0 0.0
2017-Oct-22 03:57N 38°58' W 076°29'0 0.0
2017-Oct-22 03:27N 38°58' W 076°29'0 0.0
2017-Oct-22 02:54N 38°58' W 076°29'0 0.0
2017-Oct-22 02:27N 38°58' W 076°29'0 0.0
2017-Oct-22 01:57N 38°58' W 076°29'0 0.0
2017-Oct-22 01:30N 38°58' W 076°29'0 0.0
2017-Oct-22 00:36N 38°58' W 076°29'0 0.0
2017-Oct-22 00:27N 38°58' W 076°29'0 0.0
2017-Oct-21 23:57N 38°58' W 076°29'0 0.0
2017-Oct-21 23:18N 38°58' W 076°29'0 0.0
2017-Oct-21 22:57N 38°58' W 076°29'0 0.0
2017-Oct-21 22:30N 38°58' W 076°29'0 0.0
2017-Oct-21 21:57N 38°58' W 076°29'0 0.0
2017-Oct-21 21:27N 38°58' W 076°29'0 0.0
2017-Oct-21 20:57N 38°58' W 076°29'0 0.0
2017-Oct-21 20:15N 38°58' W 076°29'0 0.0
2017-Oct-21 19:57N 38°58' W 076°29'0 0.0
2017-Oct-21 19:15N 38°58' W 076°29'0 0.0
2017-Oct-21 19:00N 38°58' W 076°29'0 0.0
2017-Oct-21 18:27N 38°58' W 076°29'0 0.0
2017-Oct-21 17:57N 38°58' W 076°29'0 0.0
2017-Oct-21 16:45N 38°58' W 076°29'0 0.0
2017-Oct-21 16:15N 38°58' W 076°29'0 0.0
2017-Oct-21 15:54N 38°58' W 076°29'  
Track history (hours):
 
Tides and Currents Weather Stations Pressure Air Temp Water Temp Dewpoint Dewpoint Depression Visibility Wind Speed Wind Dir Waves Ship Positions

Adventurer

Owner: Hood, Duncan M, Annapolis, MD. More information available from US FCC via Universal Licensing System and Coast Guard Vessel Documentation Center.

Last reported at 2017-Oct-28 17:12 UTC. Time now 2017-Dec-16 12:51 UTC.
Position N 38°58' W 076°29'.
Warning: this ship's position is 48 days out of date.

Length 15 m.

Type: Sailing vessel. MMSI: 367520960.

Date/timePositionNaut miles runAvg speedWind from/ knotsBaromVisibWave heightAir tempDewpointWater temp
2017-Oct-28 17:12N 38°58' W 076°29'0 0.1
2017-Oct-28 17:00N 38°58' W 076°29'2 4.2
2017-Oct-28 16:31N 38°60' W 076°29'2 4.6
2017-Oct-28 15:59N 39°01' W 076°32'0 0.0
2017-Oct-28 15:11N 39°01' W 076°32'0 0.5
2017-Oct-28 14:48N 39°01' W 076°32'1 0.0
2017-Oct-27 22:02N 39°01' W 076°31'0 2.0
2017-Oct-27 21:56N 39°01' W 076°31'  
2017-Oct-23 22:24N 38°58' W 076°29'0 0.0
2017-Oct-23 22:00N 38°58' W 076°29'0 0.0
2017-Oct-23 21:30N 38°58' W 076°29'0 0.0
2017-Oct-23 20:52N 38°58' W 076°29'1 1.8
2017-Oct-23 20:30N 38°58' W 076°28'3 6.5
2017-Oct-23 20:00N 38°58' W 076°24'3 5.6
2017-Oct-23 19:28N 38°59' W 076°20'0 0.0
2017-Oct-23 18:16N 38°59' W 076°20'1 2.4
2017-Oct-23 18:00N 38°59' W 076°21'3 6.1
2017-Oct-23 17:29N 38°56' W 076°23'3 5.7
2017-Oct-23 16:55N 38°54' W 076°26'2 4.4
2017-Oct-23 16:30N 38°54' W 076°29'2 4.8
2017-Oct-23 16:00N 38°56' W 076°31'0 0.0
2017-Oct-22 22:53N 38°56' W 076°31'2 5.0
2017-Oct-22 22:30N 38°54' W 076°29'2 4.8
2017-Oct-22 22:00N 38°54' W 076°26'2 4.0
2017-Oct-22 21:30N 38°56' W 076°26'3 5.8
2017-Oct-22 20:59N 38°58' W 076°28'0 0.9
2017-Oct-22 20:27N 38°58' W 076°29'0 0.0
2017-Oct-22 19:57N 38°58' W 076°29'0 0.0
2017-Oct-22 19:15N 38°58' W 076°29'0 0.0
2017-Oct-22 18:45N 38°58' W 076°29'0 0.0
2017-Oct-22 18:15N 38°58' W 076°29'0 0.0
2017-Oct-22 17:57N 38°58' W 076°29'0 0.0
2017-Oct-22 16:57N 38°58' W 076°29'0 0.0
2017-Oct-22 15:45N 38°58' W 076°29'0 0.0
2017-Oct-22 15:09N 38°58' W 076°29'0 0.0
2017-Oct-22 14:57N 38°58' W 076°29'0 0.0
2017-Oct-22 14:15N 38°58' W 076°29'0 0.0
2017-Oct-22 13:57N 38°58' W 076°29'0 0.0
2017-Oct-22 13:27N 38°58' W 076°29'0 0.0
2017-Oct-22 12:57N 38°58' W 076°29'0 0.0
2017-Oct-22 12:30N 38°58' W 076°29'0 0.0
2017-Oct-22 11:57N 38°58' W 076°29'0 0.0
2017-Oct-22 11:27N 38°58' W 076°29'0 0.0
2017-Oct-22 10:57N 38°58' W 076°29'0 0.0
2017-Oct-22 10:24N 38°58' W 076°29'0 0.0
2017-Oct-22 09:33N 38°58' W 076°29'0 0.0
2017-Oct-22 09:30N 38°58' W 076°29'0 0.0
2017-Oct-22 08:48N 38°58' W 076°29'0 0.0
2017-Oct-22 08:27N 38°58' W 076°29'0 0.0
2017-Oct-22 07:39N 38°58' W 076°29'0 0.0
2017-Oct-22 07:27N 38°58' W 076°29'0 0.0
2017-Oct-22 06:39N 38°58' W 076°29'0 0.0
2017-Oct-22 06:27N 38°58' W 076°29'0 0.0
2017-Oct-22 05:36N 38°58' W 076°29'0 0.0
2017-Oct-22 05:27N 38°58' W 076°29'0 0.0
2017-Oct-22 04:54N 38°58' W 076°29'0 0.0
2017-Oct-22 04:27N 38°58' W 076°29'0 0.0
2017-Oct-22 03:57N 38°58' W 076°29'0 0.0
2017-Oct-22 03:27N 38°58' W 076°29'0 0.0
2017-Oct-22 02:54N 38°58' W 076°29'0 0.0
2017-Oct-22 02:27N 38°58' W 076°29'0 0.0
2017-Oct-22 01:57N 38°58' W 076°29'0 0.0
2017-Oct-22 01:30N 38°58' W 076°29'0 0.0
2017-Oct-22 00:36N 38°58' W 076°29'0 0.0
2017-Oct-22 00:27N 38°58' W 076°29'0 0.0
2017-Oct-21 23:57N 38°58' W 076°29'0 0.0
2017-Oct-21 23:18N 38°58' W 076°29'0 0.0
2017-Oct-21 22:57N 38°58' W 076°29'0 0.0
2017-Oct-21 22:30N 38°58' W 076°29'0 0.0
2017-Oct-21 21:57N 38°58' W 076°29'0 0.0
2017-Oct-21 21:27N 38°58' W 076°29'0 0.0
2017-Oct-21 20:57N 38°58' W 076°29'0 0.0
2017-Oct-21 20:15N 38°58' W 076°29'0 0.0
2017-Oct-21 19:57N 38°58' W 076°29'0 0.0
2017-Oct-21 19:15N 38°58' W 076°29'0 0.0
2017-Oct-21 19:00N 38°58' W 076°29'0 0.0
2017-Oct-21 18:27N 38°58' W 076°29'0 0.0
2017-Oct-21 17:57N 38°58' W 076°29'0 0.0
2017-Oct-21 16:45N 38°58' W 076°29'0 0.0
2017-Oct-21 16:15N 38°58' W 076°29'0 0.0
2017-Oct-21 15:54N 38°58' W 076°29'  

Dump ship's entire track history